GLRB Airport Information

Runway Information
Runway 04 Length 11000 ft width 150 ft
Elevation 29 ft Threshold 0 ft Heading 31
Runway 22 Length 11000 ft Width 150 ft
Elevation 25 ft Threshold 1200 ft Heading 211
Airport Frequencies
Type A/G Name A/G VOICE Frequency 345.2 MHZ
Type APP Name ROBERTS AP Frequency 124.5 MHZ
Type GND Name GND Frequency 121.9 MHZ
Type TWR Name ROBERTS TW Frequency 118.3 MHZ
Airport Navaids
Type NDB Name Monrovia Roberts Frequency 263 KHZ
Type NDB Name Monrovia Roberts Frequency 372 KHZ
Type VOR-DME Name Monrovia Roberts Frequency 113800 KHZ
Airport Weather Information & NOTAM
ADDS - METARS form results

(1957 UTC 03 July 2020)
Data provider http://aviationweather.gov/metar/data/
 
METAR text: GLRB 031930Z 00000KT 4000 DZ FEW005 BKN011 FEW022CB 24/23 Q1013 TEMPO DZ CB/SW-SW
Conditions at: GLRB (ROBERTS INTL/MON, LR) observed 1930 UTC 03 July 2020
Temperature: 24.0°C (75°F)
Dewpoint: 23.0°C (73°F) [RH = 94%]
Pressure (altimeter): 29.91 inches Hg (1013.0 mb)
Winds: calm
Visibility: 2.49 miles (4.01 km)
Ceiling: 1100 feet AGL
Clouds: few clouds at 500 feet AGL
broken clouds at 1100 feet AGL
few clouds at 2200 feet AGL
Weather: DZ  (moderate drizzle)

METAR text: GLRB 031900Z 22005KT 6000 DZ FEW005 BKN011 FEW022CB 24/23 Q1012 TEMPO DZ CB/SW-SW
Conditions at: GLRB (ROBERTS INTL/MON, LR) observed 1900 UTC 03 July 2020
Temperature: 24.0°C (75°F)
Dewpoint: 23.0°C (73°F) [RH = 94%]
Pressure (altimeter): 29.88 inches Hg (1012.0 mb)
Winds: from the SW (220 degrees) at 6 MPH (5 knots; 2.6 m/s)
Visibility: 4 miles ( 6 km)
Ceiling: 1100 feet AGL
Clouds: few clouds at 500 feet AGL
broken clouds at 1100 feet AGL
few clouds at 2200 feet AGL
Weather: DZ  (moderate drizzle)

Forecast for: GLRB (ROBERTS INTL/MON, LR)
Text: TAF GLRB 031700Z 0318/0418 22009KT 9999 BKN015
Forecast period: 1800 to 2300 UTC 03 July 2020
Forecast type: FROM: standard forecast or significant change
Winds: from the SW (220 degrees) at 10 MPH (9 knots; 4.6 m/s)
Visibility: 6 or more miles 10+ km)
Ceiling: 1500 feet AGL
Clouds: broken clouds at 1500 feet AGL
Weather: no significant weather forecast for this period
Text: TEMPO 0319/0322 22006KT 8000 -TSRA BKN013 FEW023CB
Forecast period: 1900 to 2200 UTC 03 July 2020
Forecast type: TEMPORARY: The following changes expected for less than half the time period
Winds: from the SW (220 degrees) at 7 MPH (6 knots; 3.1 m/s)
Visibility: 5 miles (8 km)
Ceiling: 1300 feet AGL
Clouds: broken clouds at 1300 feet AGL
few clouds at 2300 feet AGL
Weather: -TSRA  (light rain associated with thunderstorm(s))
Text: BECMG 0323/0401 00000KT 9000 BKN012 FEW022CB
Forecast period: 2300 UTC 03 July 2020 to 1800 UTC 04 July 2020
Forecast type: BECOMING: Conditions expected to become as follows by 0100 UTC 04 July 2020
Winds: calm
Visibility: 6 miles (9 km)
Ceiling: 1200 feet AGL
Clouds: broken clouds at 1200 feet AGL
few clouds at 2200 feet AGL
Weather: no significant weather forecast for this period